Time;durP1;ratioP1;P1;durP2;ratioP2;P2;SDS_P1;SDS_P2;PMS_P1;PMS_P2;Temp;Humidity;BMP_temperature;BMP_pressure;BME280_temperature;BME280_humidity;BME280_pressure;Samples;Min_cycle;Max_cycle;Signal;HPM_P1;HPM_P2
2022/12/08 00:01:21;;;;;;;19.80;12.25;;;;;;;3.45;100.00;99976.53;4998203;28;20402;-71
2022/12/08 00:03:49;;;;;;;20.27;12.57;;;;;;;3.45;100.00;99978.28;5005759;28;20108;-71
2022/12/08 00:09:23;;;;;;;20.50;11.63;;;;;;;3.42;100.00;99965.28;4989447;28;20068;-72
2022/12/08 00:11:52;;;;;;;22.70;12.35;;;;;;;3.31;100.00;99959.41;5001234;28;20054;-71
2022/12/08 00:14:22;;;;;;;22.50;13.23;;;;;;;3.35;100.00;99966.31;5001996;28;20469;-72
2022/12/08 00:16:49;;;;;;;21.58;12.65;;;;;;;3.18;100.00;99930.94;5005258;28;20379;-71
2022/12/08 00:19:16;;;;;;;21.77;12.85;;;;;;;3.47;100.00;99966.84;4998416;28;20141;-72
2022/12/08 00:21:42;;;;;;;22.17;12.40;;;;;;;3.50;100.00;99965.91;4999251;28;20176;-72
2022/12/08 00:24:09;;;;;;;20.75;12.38;;;;;;;3.56;100.00;99963.16;4998012;28;20062;-72
2022/12/08 00:26:35;;;;;;;20.45;13.25;;;;;;;3.62;100.00;99962.97;5004891;28;20057;-71
2022/12/08 00:29:04;;;;;;;21.52;12.10;;;;;;;3.64;100.00;99957.72;4998122;28;20046;-73
2022/12/08 00:31:31;;;;;;;21.25;12.90;;;;;;;3.66;100.00;99946.31;5000054;28;20128;-71
2022/12/08 00:33:58;;;;;;;21.90;13.10;;;;;;;3.75;100.00;99958.31;4999222;28;20449;-72
2022/12/08 00:36:25;;;;;;;26.15;13.13;;;;;;;3.68;100.00;99947.13;5005679;28;20141;-71
2022/12/08 00:38:52;;;;;;;19.65;12.32;;;;;;;3.78;100.00;99952.97;4997400;28;20053;-71
2022/12/08 00:44:07;;;;;;;22.65;12.90;;;;;;;3.70;100.00;99945.34;5002512;28;20129;-69
2022/12/08 00:46:34;;;;;;;22.52;13.45;;;;;;;3.80;100.00;99948.56;5005917;28;20331;-72
2022/12/08 00:49:01;;;;;;;20.73;13.88;;;;;;;3.77;100.00;99943.44;4998835;28;20064;-70
2022/12/08 00:51:28;;;;;;;25.42;14.18;;;;;;;3.72;100.00;99954.00;4997519;28;20745;-70
2022/12/08 00:53:54;;;;;;;21.92;13.15;;;;;;;3.69;100.00;99946.22;5002445;28;21777;-70
2022/12/08 00:56:22;;;;;;;24.48;14.73;;;;;;;3.71;100.00;99947.06;5002756;28;20065;-72
2022/12/08 00:58:48;;;;;;;25.63;14.60;;;;;;;3.58;100.00;99940.44;4998026;28;20477;-70
2022/12/08 01:01:15;;;;;;;26.55;14.50;;;;;;;3.39;100.00;99913.00;4996584;28;20046;-71
2022/12/08 01:03:42;;;;;;;23.15;13.95;;;;;;;3.56;100.00;99943.97;5006413;28;20056;-71
2022/12/08 01:06:09;;;;;;;24.35;14.27;;;;;;;3.44;100.00;99916.34;4996884;28;20054;-71
2022/12/08 01:08:37;;;;;;;24.58;14.25;;;;;;;3.62;100.00;99949.06;5003073;28;20037;-70
2022/12/08 01:11:09;;;;;;;25.35;14.20;;;;;;;3.63;100.00;99932.44;5014991;28;20074;-70
2022/12/08 01:13:36;;;;;;;28.17;14.07;;;;;;;3.70;100.00;99947.94;5011247;28;20155;-71
2022/12/08 01:16:03;;;;;;;23.73;14.05;;;;;;;3.68;100.00;99930.56;5005900;28;20464;-71
2022/12/08 01:18:29;;;;;;;26.63;14.90;;;;;;;3.68;100.00;99931.41;5010312;28;20064;-71
2022/12/08 01:21:04;;;;;;;23.80;14.00;;;;;;;3.70;100.00;99924.38;5002105;28;20060;-69
2022/12/08 01:23:31;;;;;;;24.08;14.45;;;;;;;3.75;100.00;99935.59;5005293;28;20062;-71
2022/12/08 01:26:02;;;;;;;24.15;14.60;;;;;;;3.74;100.00;99933.88;5006375;28;20120;-69
2022/12/08 01:28:30;;;;;;;27.98;15.95;;;;;;;3.64;100.00;99924.53;5002170;28;20057;-70
2022/12/08 01:30:58;;;;;;;26.38;15.80;;;;;;;3.60;100.00;99922.06;5002079;28;20717;-70
2022/12/08 01:33:25;;;;;;;24.85;14.20;;;;;;;3.71;100.00;99927.88;5004404;28;20064;-70
2022/12/08 01:35:52;;;;;;;26.83;14.65;;;;;;;3.69;100.00;99916.56;5009259;28;20056;-70
2022/12/08 01:38:19;;;;;;;28.77;15.70;;;;;;;3.72;100.00;99927.81;5010248;28;20129;-70
2022/12/08 01:40:48;;;;;;;27.20;15.85;;;;;;;3.65;100.00;99907.94;5001035;28;20129;-70
2022/12/08 01:43:19;;;;;;;25.67;15.30;;;;;;;3.78;100.00;99921.53;5004238;28;20418;-72
2022/12/08 01:45:46;;;;;;;26.85;15.15;;;;;;;3.80;100.00;99915.38;5005846;28;20057;-70
2022/12/08 01:48:25;;;;;;;27.88;15.55;;;;;;;3.64;100.00;99887.88;5004451;28;20046;-70
2022/12/08 01:50:54;;;;;;;27.02;15.15;;;;;;;3.69;100.00;99900.84;5000137;28;20108;-70
2022/12/08 01:53:26;;;;;;;26.85;15.60;;;;;;;3.77;100.00;99918.09;5004722;28;20112;-70
2022/12/08 01:55:58;;;;;;;;;;;;;;;3.72;100.00;99912.13;5004788;28;20462;-70
2022/12/08 01:58:43;;;;;;;26.55;15.45;;;;;;;3.69;100.00;99906.97;5004105;28;20016;-70
2022/12/08 02:01:11;;;;;;;28.13;16.00;;;;;;;3.68;100.00;99915.72;4997739;28;20042;-69
2022/12/08 02:03:57;;;;;;;29.45;16.20;;;;;;;3.68;100.00;99910.47;5006264;28;20132;-70
2022/12/08 02:06:27;;;;;;;29.92;16.25;;;;;;;3.68;100.00;99907.00;5007731;28;20060;-70
2022/12/08 02:08:55;;;;;;;28.83;17.43;;;;;;;3.66;100.00;99901.78;5004269;28;20054;-69
2022/12/08 02:11:21;;;;;;;26.83;16.23;;;;;;;3.65;100.00;99894.84;4998990;28;20473;-70
2022/12/08 02:13:51;;;;;;;27.52;16.20;;;;;;;3.60;100.00;99875.78;5005248;28;20133;-70
2022/12/08 02:16:26;;;;;;;33.03;16.15;;;;;;;3.67;100.00;99872.09;5013152;28;20072;-70
2022/12/08 02:19:22;;;;;;;31.15;16.85;;;;;;;3.80;100.00;99894.41;5011412;28;20129;-70
2022/12/08 02:22:06;;;;;;;30.08;16.42;;;;;;;3.81;100.00;99890.03;5007579;28;20062;-70
2022/12/08 02:24:44;;;;;;;28.88;16.85;;;;;;;3.81;100.00;99877.81;4999706;28;20161;-70
2022/12/08 02:27:17;;;;;;;31.15;16.80;;;;;;;3.75;100.00;99862.28;5001755;28;20490;-70
2022/12/08 02:30:19;;;;;;;28.95;17.13;;;;;;;3.75;100.00;99867.53;5005662;28;20489;-70
2022/12/08 02:33:20;;;;;;;33.78;17.77;;;;;;;3.83;100.00;99889.09;4995556;28;20049;-71
2022/12/08 02:36:14;;;;;;;29.40;16.90;;;;;;;3.70;100.00;99861.53;5006697;28;20041;-71
2022/12/08 02:38:55;;;;;;;28.45;16.08;;;;;;;3.87;100.00;99884.66;5004613;28;20512;-70
2022/12/08 02:41:45;;;;;;;27.52;16.60;;;;;;;3.75;100.00;99854.44;4996966;28;20062;-70
2022/12/08 02:44:29;;;;;;;33.05;16.83;;;;;;;3.85;100.00;99876.81;5003199;28;20485;-70
2022/12/08 02:47:05;;;;;;;33.55;18.33;;;;;;;3.85;100.00;99875.97;5010150;28;20060;-71
2022/12/08 02:49:33;;;;;;;31.92;17.73;;;;;;;3.82;100.00;99873.44;4998453;28;20087;-70
2022/12/08 02:52:13;;;;;;;28.52;17.52;;;;;;;3.75;100.00;99872.75;4998066;28;20042;-70
2022/12/08 02:54:45;;;;;;;32.10;18.27;;;;;;;3.63;100.00;99873.06;5004849;28;20405;-70
2022/12/08 02:57:24;;;;;;;40.50;17.83;;;;;;;3.53;100.00;99875.09;5005084;28;20066;-70
2022/12/08 02:59:51;;;;;;;33.38;18.17;;;;;;;3.60;100.00;99867.94;5001631;28;20481;-70
2022/12/08 03:02:40;;;;;;;34.47;18.42;;;;;;;3.66;100.00;99869.50;5004510;28;20069;-70
2022/12/08 03:05:29;;;;;;;35.75;18.80;;;;;;;3.53;100.00;99863.75;5003711;28;20061;-70
2022/12/08 03:08:03;;;;;;;32.92;18.67;;;;;;;3.40;100.00;99857.13;5010918;28;20080;-72
2022/12/08 03:10:39;;;;;;;36.78;18.92;;;;;;;3.57;100.00;99861.91;5000529;28;20042;-71
2022/12/08 03:13:15;;;;;;;32.45;18.27;;;;;;;3.51;100.00;99850.69;4996196;28;20045;-70
2022/12/08 03:15:45;;;;;;;33.10;18.58;;;;;;;3.53;100.00;99845.44;5003721;28;20041;-71
2022/12/08 03:18:14;;;;;;;;;;;;;;;3.64;100.00;99864.31;5006285;28;20152;-71
2022/12/08 03:20:44;;;;;;;35.35;18.58;;;;;;;3.71;100.00;99854.53;4997472;28;19926;-70
2022/12/08 03:23:13;;;;;;;35.25;17.75;;;;;;;3.70;100.00;99845.84;5019875;28;20042;-70
2022/12/08 03:25:49;;;;;;;32.60;16.50;;;;;;;3.76;100.00;99842.19;5002432;28;20045;-70
2022/12/08 03:28:16;;;;;;;30.40;17.52;;;;;;;3.59;100.00;99824.34;4999565;28;20078;-70
2022/12/08 03:30:46;;;;;;;30.15;17.70;;;;;;;3.66;100.00;99838.09;4999103;28;20145;-71
2022/12/08 03:33:21;;;;;;;32.67;18.02;;;;;;;3.71;100.00;99833.59;5003489;28;20049;-72
2022/12/08 03:35:48;;;;;;;30.23;17.13;;;;;;;3.74;100.00;99836.13;5002947;28;20073;-71
2022/12/08 03:38:16;;;;;;;35.45;17.60;;;;;;;3.70;100.00;99830.13;5000848;28;20085;-69
2022/12/08 03:41:17;;;;;;;33.65;18.00;;;;;;;3.66;100.00;99838.09;5001421;28;20061;-70
2022/12/08 03:43:30;;;;;;;34.72;18.75;;;;;;;3.54;100.00;99807.88;5004147;28;20050;-69
2022/12/08 03:45:57;;;;;;;29.88;17.35;;;;;;;3.48;100.00;99801.03;5007566;28;20129;-72
2022/12/08 03:48:23;;;;;;;33.65;18.10;;;;;;;3.41;100.00;99812.59;4999260;28;20056;-71
2022/12/08 03:50:50;;;;;;;33.20;18.63;;;;;;;3.46;100.00;99797.59;5000580;28;20057;-71
2022/12/08 03:53:16;;;;;;;29.77;17.92;;;;;;;3.74;100.00;99825.66;5001472;28;20401;-70
2022/12/08 03:55:43;;;;;;;32.63;17.75;;;;;;;3.79;100.00;99823.75;5006477;28;20042;-71
2022/12/08 03:58:09;;;;;;;33.30;17.52;;;;;;;3.78;100.00;99822.03;5001617;28;20056;-70
2022/12/08 04:00:36;;;;;;;34.90;18.90;;;;;;;3.76;100.00;99810.78;5003075;28;20136;-70
2022/12/08 04:03:03;;;;;;;31.17;17.83;;;;;;;3.66;100.00;99807.53;4999083;28;20056;-70
2022/12/08 04:05:30;;;;;;;29.38;17.35;;;;;;;3.68;100.00;99810.97;5002387;28;20468;-71
2022/12/08 04:07:57;;;;;;;32.78;18.75;;;;;;;3.67;100.00;99804.00;5004130;28;20573;-73
2022/12/08 04:10:23;;;;;;;34.58;17.95;;;;;;;3.75;100.00;99816.91;5001263;28;20431;-70
2022/12/08 04:12:50;;;;;;;32.20;17.70;;;;;;;3.77;100.00;99810.72;4992534;28;20053;-71
2022/12/08 04:15:16;;;;;;;32.08;18.52;;;;;;;3.78;100.00;99801.94;5002545;28;20081;-71
2022/12/08 04:17:43;;;;;;;35.20;17.95;;;;;;;3.80;100.00;99813.22;5001698;28;20038;-71
2022/12/08 04:20:10;;;;;;;33.55;18.75;;;;;;;3.86;100.00;99810.44;4997983;28;20056;-70
2022/12/08 04:22:37;;;;;;;33.00;17.90;;;;;;;3.88;100.00;99805.16;4995131;28;20133;-70
2022/12/08 04:25:04;;;;;;;33.47;18.00;;;;;;;3.85;100.00;99806.13;5001791;28;20057;-70
2022/12/08 04:27:30;;;;;;;32.55;17.98;;;;;;;3.83;100.00;99797.44;4997762;28;20350;-71
2022/12/08 04:29:57;;;;;;;29.98;17.30;;;;;;;3.86;100.00;99805.22;4999886;28;20597;-71
2022/12/08 04:32:23;;;;;;;32.60;17.60;;;;;;;3.86;100.00;99797.34;4989080;28;20050;-71
2022/12/08 04:34:50;;;;;;;32.50;17.58;;;;;;;3.76;100.00;99782.81;5001493;28;20133;-70
2022/12/08 04:37:16;;;;;;;35.33;18.85;;;;;;;3.73;100.00;99788.13;5002474;28;20046;-70
2022/12/08 04:39:43;;;;;;;34.67;17.70;;;;;;;3.67;100.00;99787.44;5001568;28;20482;-71
2022/12/08 04:42:09;;;;;;;32.55;18.00;;;;;;;3.59;100.00;99792.06;4993822;28;20048;-70
2022/12/08 04:44:36;;;;;;;35.35;18.05;;;;;;;3.31;100.00;99760.53;5005835;28;20569;-71
2022/12/08 04:47:02;;;;;;;35.55;17.50;;;;;;;3.47;100.00;99790.63;5002458;28;20089;-74
2022/12/08 04:49:29;;;;;;;33.50;18.90;;;;;;;3.53;100.00;99793.94;5004824;28;20062;-70
2022/12/08 04:51:56;;;;;;;32.67;18.20;;;;;;;3.55;100.00;99783.44;4995719;28;20487;-70
2022/12/08 04:54:22;;;;;;;31.60;18.38;;;;;;;3.68;100.00;99794.41;4999258;28;20096;-70
2022/12/08 04:56:49;;;;;;;35.20;17.70;;;;;;;3.67;100.00;99782.22;4998553;28;20145;-70
2022/12/08 04:59:16;;;;;;;28.13;17.27;;;;;;;3.73;100.00;99784.66;5001043;28;20149;-70
2022/12/08 05:01:42;;;;;;;32.17;18.20;;;;;;;3.74;100.00;99781.16;4992118;28;20050;-70
2022/12/08 05:04:09;;;;;;;31.65;17.10;;;;;;;3.78;100.00;99775.75;5001505;28;20157;-72
2022/12/08 05:06:36;;;;;;;32.05;16.58;;;;;;;3.82;100.00;99769.53;5000615;28;20513;-72
2022/12/08 05:09:02;;;;;;;33.05;17.27;;;;;;;3.77;100.00;99758.34;5006661;28;20069;-73
2022/12/08 05:11:29;;;;;;;29.40;17.60;;;;;;;3.75;100.00;99772.38;4987238;28;20140;-69
2022/12/08 05:13:55;;;;;;;31.05;16.55;;;;;;;3.71;100.00;99776.00;4996169;28;20112;-71
2022/12/08 05:16:22;;;;;;;32.08;17.23;;;;;;;3.73;100.00;99776.81;4999162;28;20409;-71
2022/12/08 05:18:49;;;;;;;28.35;16.58;;;;;;;3.53;100.00;99743.34;4993938;28;20427;-71
2022/12/08 05:21:15;;;;;;;32.30;17.83;;;;;;;3.68;100.00;99769.06;4993265;28;20147;-71
2022/12/08 05:23:42;;;;;;;32.97;17.70;;;;;;;3.72;100.00;99775.94;4999143;28;20054;-71
2022/12/08 05:26:08;;;;;;;31.48;16.85;;;;;;;3.76;100.00;99767.13;4999472;28;20037;-71
2022/12/08 05:28:35;;;;;;;31.55;17.55;;;;;;;3.84;100.00;99764.25;5001065;28;20164;-71
2022/12/08 05:31:08;;;;;;;31.88;16.88;;;;;;;3.86;100.00;99763.31;4990248;28;20406;-70
2022/12/08 05:33:34;;;;;;;28.92;16.60;;;;;;;3.88;100.00;99761.50;4989755;28;20056;-71
2022/12/08 05:36:01;;;;;;;27.30;15.45;;;;;;;3.87;100.00;99757.16;4999149;28;20129;-71
2022/12/08 05:38:28;;;;;;;30.52;16.77;;;;;;;3.91;100.00;99760.56;4996947;28;20072;-72
2022/12/08 05:40:54;;;;;;;30.50;16.05;;;;;;;3.92;100.00;99753.56;4993889;28;20593;-70
2022/12/08 05:43:21;;;;;;;28.90;16.13;;;;;;;3.76;100.00;99738.31;4993736;28;20046;-70
2022/12/08 05:45:47;;;;;;;31.55;16.00;;;;;;;3.90;100.00;99755.38;5000620;28;20054;-72
2022/12/08 05:48:14;;;;;;;30.20;16.33;;;;;;;3.93;100.00;99752.66;4998137;28;20137;-70
2022/12/08 05:50:48;;;;;;;29.52;17.00;;;;;;;3.90;100.00;99745.75;4997372;28;20489;-70
2022/12/08 05:53:16;;;;;;;28.30;16.00;;;;;;;3.85;100.00;99727.53;4992734;28;20154;-71
2022/12/08 05:55:43;;;;;;;27.05;16.10;;;;;;;3.96;100.00;99742.91;5001390;28;20133;-71
2022/12/08 05:58:13;;;;;;;27.90;15.93;;;;;;;3.91;100.00;99751.84;5000962;28;20061;-71
2022/12/08 06:00:40;;;;;;;30.50;15.97;;;;;;;3.77;100.00;99736.53;5005348;28;20133;-70
2022/12/08 06:03:07;;;;;;;29.50;16.13;;;;;;;3.86;100.00;99752.81;4997052;28;20418;-70
2022/12/08 06:05:34;;;;;;;32.28;16.67;;;;;;;3.80;100.00;99747.75;5000224;28;20625;-71
2022/12/08 06:08:01;;;;;;;32.58;16.60;;;;;;;3.56;100.00;99732.78;5000620;28;20053;-69
2022/12/08 06:10:28;;;;;;;30.90;17.25;;;;;;;3.75;100.00;99760.16;5005676;28;20084;-71
2022/12/08 06:12:54;;;;;;;32.45;16.50;;;;;;;3.66;100.00;99728.13;4987610;28;20061;-70
2022/12/08 06:15:21;;;;;;;30.60;16.63;;;;;;;3.83;100.00;99758.16;5004680;28;20626;-70
2022/12/08 06:17:48;;;;;;;28.58;15.77;;;;;;;3.90;100.00;99756.22;5000567;28;20418;-70
2022/12/08 06:20:14;;;;;;;28.98;15.68;;;;;;;3.94;100.00;99751.72;5003876;28;20050;-70
2022/12/08 06:22:41;;;;;;;25.90;15.73;;;;;;;3.91;100.00;99757.09;4993395;28;20050;-71
2022/12/08 06:25:08;;;;;;;27.23;16.17;;;;;;;3.88;100.00;99751.03;4989540;28;20047;-68
2022/12/08 06:27:35;;;;;;;28.38;15.45;;;;;;;3.93;100.00;99753.53;5004373;28;20125;-70
2022/12/08 06:30:03;;;;;;;25.23;15.30;;;;;;;3.80;100.00;99741.66;5007988;28;20133;-70
2022/12/08 06:32:30;;;;;;;29.95;15.10;;;;;;;3.85;100.00;99763.34;4998619;28;20060;-71
2022/12/08 06:34:56;;;;;;;29.52;16.38;;;;;;;3.84;100.00;99759.00;5003886;28;20092;-70
2022/12/08 06:37:23;;;;;;;32.92;16.55;;;;;;;3.77;100.00;99765.34;5006065;28;20077;-70
2022/12/08 06:39:50;;;;;;;30.45;17.05;;;;;;;3.71;100.00;99768.13;5010265;28;20521;-71
2022/12/08 06:45:03;;;;;;;31.20;16.20;;;;;;;3.78;100.00;99770.50;5007597;28;20153;-71
2022/12/08 06:47:29;;;;;;;29.33;16.60;;;;;;;3.79;100.00;99759.13;5001113;28;20631;-71
2022/12/08 06:49:57;;;;;;;31.67;17.48;;;;;;;3.64;100.00;99736.03;5004272;28;20150;-70
2022/12/08 06:52:23;;;;;;;33.42;17.13;;;;;;;3.79;100.00;99751.28;4999188;28;20408;-70
2022/12/08 06:54:50;;;;;;;28.35;16.90;;;;;;;3.81;100.00;99765.19;5014437;28;20139;-71
2022/12/08 06:57:17;;;;;;;33.08;17.33;;;;;;;3.69;100.00;99743.75;5005233;28;20069;-71
2022/12/08 06:59:44;;;;;;;30.50;16.70;;;;;;;3.75;100.00;99757.53;5011522;28;20053;-71
2022/12/08 07:02:10;;;;;;;29.15;16.40;;;;;;;3.76;100.00;99761.00;5000772;28;20541;-70
2022/12/08 07:04:37;;;;;;;35.70;17.25;;;;;;;3.63;100.00;99760.50;5006983;28;20502;-71
2022/12/08 07:07:03;;;;;;;32.47;16.77;;;;;;;3.52;100.00;99752.09;5006025;28;20052;-70
2022/12/08 07:09:30;;;;;;;29.65;17.42;;;;;;;3.50;100.00;99764.38;5002443;28;20393;-69
2022/12/08 07:11:59;;;;;;;34.50;18.40;;;;;;;3.44;100.00;99762.78;4994776;28;20132;-70
2022/12/08 07:14:26;;;;;;;33.80;17.83;;;;;;;3.42;100.00;99756.75;4997633;28;20053;-72
2022/12/08 07:16:52;;;;;;;30.80;16.80;;;;;;;3.41;100.00;99748.94;5007050;28;20310;-70
2022/12/08 07:19:19;;;;;;;29.77;17.10;;;;;;;3.56;100.00;99766.81;5004688;28;20082;-71
2022/12/08 07:21:46;;;;;;;31.98;18.45;;;;;;;3.63;100.00;99763.09;4996783;28;21911;-71
2022/12/08 07:24:12;;;;;;;29.63;16.90;;;;;;;3.63;100.00;99759.63;5001799;28;20541;-71
2022/12/08 07:26:40;;;;;;;30.58;17.30;;;;;;;3.66;100.00;99763.03;5003741;28;20525;-72
2022/12/08 07:29:07;;;;;;;28.27;15.93;;;;;;;3.70;100.00;99761.19;4998169;28;20133;-71
2022/12/08 07:31:33;;;;;;;27.83;16.67;;;;;;;3.76;100.00;99756.63;4997197;28;20414;-72
2022/12/08 07:34:00;;;;;;;29.90;16.85;;;;;;;3.83;100.00;99757.28;4998713;28;20132;-72
2022/12/08 07:36:27;;;;;;;28.58;16.63;;;;;;;3.65;100.00;99726.41;5005325;28;20050;-71
2022/12/08 07:38:53;;;;;;;28.92;16.92;;;;;;;3.80;100.00;99760.00;5010185;28;20517;-70
2022/12/08 07:41:23;;;;;;;30.05;16.45;;;;;;;3.73;100.00;99750.63;4995590;28;20344;-71
2022/12/08 07:43:50;;;;;;;29.30;16.45;;;;;;;3.73;100.00;99756.72;4991863;28;20385;-72
2022/12/08 07:46:20;;;;;;;29.60;16.85;;;;;;;3.76;100.00;99756.63;4995592;28;20515;-71
2022/12/08 07:48:47;;;;;;;29.67;16.98;;;;;;;3.81;100.00;99754.72;4997924;28;20484;-71
2022/12/08 07:51:15;;;;;;;32.50;17.80;;;;;;;3.81;100.00;99762.56;4999683;28;20081;-71
2022/12/08 07:53:44;;;;;;;31.48;17.75;;;;;;;3.73;100.00;99756.72;4995886;28;20050;-71
2022/12/08 07:56:18;;;;;;;29.50;16.67;;;;;;;3.72;100.00;99756.75;4996120;28;20046;-71
2022/12/08 07:58:45;;;;;;;28.98;16.88;;;;;;;3.71;100.00;99753.28;4998281;28;20045;-70
2022/12/08 08:01:41;;;;;;;30.10;17.88;;;;;;;3.74;100.00;99750.59;4993044;28;20069;-72
2022/12/08 08:04:11;;;;;;;32.17;16.92;;;;;;;3.74;100.00;99752.34;4983583;28;20064;-70
2022/12/08 08:06:38;;;;;;;31.30;16.77;;;;;;;3.70;100.00;99751.56;4991349;28;20069;-71
2022/12/08 08:09:04;;;;;;;29.48;16.88;;;;;;;3.59;100.00;99753.66;4993453;28;20567;-72
2022/12/08 08:11:31;;;;;;;28.67;16.83;;;;;;;3.55;100.00;99752.00;4997334;28;20041;-72
2022/12/08 08:13:58;;;;;;;29.58;16.58;;;;;;;3.52;100.00;99746.84;4993609;28;20507;-71
2022/12/08 08:16:24;;;;;;;28.55;16.42;;;;;;;3.40;100.00;99726.28;4984975;28;20042;-72
2022/12/08 08:18:51;;;;;;;28.42;16.50;;;;;;;3.59;100.00;99758.88;4997118;28;20250;-72
2022/12/08 08:21:19;;;;;;;35.00;17.13;;;;;;;3.69;100.00;99756.84;4995886;28;20050;-71
2022/12/08 08:24:06;;;;;;;32.03;16.67;;;;;;;3.76;100.00;99759.25;4994477;28;20049;-71
2022/12/08 08:26:33;;;;;;;28.58;16.27;;;;;;;3.75;100.00;99754.91;5001353;28;20516;-72
2022/12/08 08:28:59;;;;;;;30.63;17.60;;;;;;;3.84;100.00;99762.50;5000136;28;20074;-72
2022/12/08 08:31:26;;;;;;;29.73;16.42;;;;;;;3.84;100.00;99756.41;4997327;28;20058;-72
2022/12/08 08:33:53;;;;;;;33.88;16.17;;;;;;;3.88;100.00;99756.25;4989566;28;20046;-71
2022/12/08 08:36:20;;;;;;;29.40;16.88;;;;;;;4.01;100.00;99758.50;4999625;28;20148;-72
2022/12/08 08:38:47;;;;;;;26.08;15.10;;;;;;;4.04;100.00;99761.03;5003279;28;20137;-72
2022/12/08 08:41:14;;;;;;;30.88;16.25;;;;;;;4.04;100.00;99756.66;4999826;28;20221;-72
2022/12/08 08:43:40;;;;;;;29.45;15.93;;;;;;;3.86;100.00;99737.13;4995289;28;20116;-72
2022/12/08 08:46:07;;;;;;;27.77;16.10;;;;;;;4.03;100.00;99762.81;4990572;28;20509;-72
2022/12/08 08:48:35;;;;;;;28.70;16.25;;;;;;;3.84;100.00;99749.41;5001445;28;20038;-72
2022/12/08 08:51:12;;;;;;;28.83;15.95;;;;;;;3.87;100.00;99759.78;5000012;28;20088;-72
2022/12/08 08:53:39;;;;;;;30.50;16.35;;;;;;;3.88;100.00;99763.25;4994213;28;20054;-71
2022/12/08 08:56:11;;;;;;;26.08;16.13;;;;;;;3.86;100.00;99759.81;5001089;28;20508;-70
2022/12/08 08:58:37;;;;;;;29.15;16.13;;;;;;;3.96;100.00;99753.41;4996376;28;20494;-70
2022/12/08 09:01:04;;;;;;;30.92;16.88;;;;;;;4.07;100.00;99758.34;5000954;28;20064;-70
2022/12/08 09:03:31;;;;;;;28.00;16.67;;;;;;;4.15;100.00;99761.56;5005119;28;20518;-71
2022/12/08 09:05:58;;;;;;;30.70;16.38;;;;;;;4.15;100.00;99746.69;5001295;28;20049;-71
2022/12/08 09:08:24;;;;;;;27.08;16.90;;;;;;;4.22;100.00;99756.09;4999380;28;20065;-71
2022/12/08 09:10:51;;;;;;;28.75;14.60;;;;;;;4.28;100.00;99741.91;4991300;28;20054;-71
2022/12/08 09:13:18;;;;;;;27.42;15.00;;;;;;;4.43;100.00;99749.28;4984948;28;20131;-70
2022/12/08 09:15:44;;;;;;;26.38;15.35;;;;;;;4.51;100.00;99749.06;4999229;28;20057;-70
2022/12/08 09:18:11;;;;;;;26.25;15.13;;;;;;;4.53;100.00;99745.50;4985875;28;20061;-72
2022/12/08 09:20:38;;;;;;;27.92;15.30;;;;;;;4.47;100.00;99727.31;4998828;28;20077;-70
2022/12/08 09:23:04;;;;;;;29.02;15.52;;;;;;;4.61;100.00;99745.22;4987155;28;20048;-70
2022/12/08 09:25:31;;;;;;;25.92;15.20;;;;;;;4.64;100.00;99744.25;4990626;28;20163;-71
2022/12/08 09:27:58;;;;;;;26.25;15.02;;;;;;;4.59;100.00;99737.41;4997325;28;20132;-70
2022/12/08 09:30:24;;;;;;;25.65;15.38;;;;;;;4.68;100.00;99753.75;4999874;28;20058;-71
2022/12/08 09:32:51;;;;;;;24.70;15.93;;;;;;;4.69;100.00;99758.09;4995634;28;20050;-70
2022/12/08 09:35:17;;;;;;;24.98;15.20;;;;;;;4.64;100.00;99749.50;5003098;28;20077;-70
2022/12/08 09:37:44;;;;;;;23.10;14.18;;;;;;;4.49;100.00;99722.03;4997881;28;20079;-70
2022/12/08 09:40:17;;;;;;;26.15;14.82;;;;;;;4.64;100.00;99741.63;5004719;28;20135;-71
2022/12/08 09:42:50;;;;;;;28.02;15.80;;;;;;;4.57;100.00;99741.84;4989390;28;20094;-71
2022/12/08 09:45:18;;;;;;;26.23;15.07;;;;;;;4.37;100.00;99722.44;4999508;28;20042;-72
2022/12/08 09:48:14;;;;;;;28.40;15.98;;;;;;;4.45;100.00;99744.88;4998413;28;20052;-70
2022/12/08 09:50:47;;;;;;;25.05;14.60;;;;;;;4.44;100.00;99745.75;4997443;28;20133;-70
2022/12/08 09:53:18;;;;;;;27.08;14.70;;;;;;;4.43;100.00;99737.94;4995355;28;20085;-71
2022/12/08 09:55:49;;;;;;;30.42;15.13;;;;;;;4.32;100.00;99725.19;4995090;28;20415;-71
2022/12/08 09:58:53;;;;;;;26.75;14.45;;;;;;;4.30;100.00;99732.25;5001164;28;20141;-71
2022/12/08 10:01:22;;;;;;;23.73;14.60;;;;;;;4.37;100.00;99725.91;4997348;28;20121;-70
2022/12/08 10:03:49;;;;;;;26.83;14.57;;;;;;;4.37;100.00;99727.69;4993779;28;22295;-71
2022/12/08 10:06:15;;;;;;;27.33;15.25;;;;;;;4.22;100.00;99698.44;4997532;28;20078;-70
2022/12/08 10:08:53;;;;;;;26.95;14.88;;;;;;;4.43;100.00;99711.72;5001793;28;20045;-71
2022/12/08 10:11:28;;;;;;;25.45;14.85;;;;;;;4.53;100.00;99710.53;4997555;28;20109;-71
2022/12/08 10:14:17;;;;;;;23.60;13.60;;;;;;;4.73;100.00;99709.84;4989654;28;20046;-70
2022/12/08 10:16:48;;;;;;;24.10;14.37;;;;;;;4.93;100.00;99717.91;5017752;28;20049;-71
2022/12/08 10:19:24;;;;;;;23.00;12.57;;;;;;;5.01;100.00;99707.16;5000948;28;20484;-70
2022/12/08 10:21:52;;;;;;;24.10;13.70;;;;;;;4.93;100.00;99707.41;5002585;28;20053;-70
2022/12/08 10:24:30;;;;;;;23.73;13.57;;;;;;;4.87;100.00;99681.41;4997924;28;20054;-71
2022/12/08 10:26:57;;;;;;;23.90;12.73;;;;;;;5.00;100.00;99703.66;4998051;28;20152;-72
2022/12/08 10:29:23;;;;;;;22.45;13.85;;;;;;;4.90;100.00;99702.25;4993363;28;20065;-70
2022/12/08 10:31:50;;;;;;;21.85;12.93;;;;;;;4.89;100.00;99693.53;4996441;28;20050;-70
2022/12/08 10:34:22;;;;;;;24.10;12.63;;;;;;;4.94;100.00;99694.22;4988810;28;20046;-71
2022/12/08 10:36:51;;;;;;;19.42;12.63;;;;;;;5.03;100.00;99698.31;4997508;28;20056;-70
2022/12/08 10:39:30;;;;;;;19.63;12.50;;;;;;;5.07;100.00;99693.78;5002837;28;20046;-70
2022/12/08 10:42:07;;;;;;;22.42;12.43;;;;;;;4.94;100.00;99675.00;5001051;28;20477;-70
2022/12/08 10:44:55;;;;;;;21.20;12.00;;;;;;;5.07;100.00;99692.03;4993176;28;20366;-71
2022/12/08 10:47:24;;;;;;;23.45;12.57;;;;;;;5.04;100.00;99689.50;4997880;28;20062;-71
2022/12/08 10:50:19;;;;;;;20.48;12.00;;;;;;;5.01;100.00;99681.78;4991177;28;20145;-71
2022/12/08 10:53:08;;;;;;;21.38;12.00;;;;;;;5.01;100.00;99678.28;5001751;28;20060;-70
2022/12/08 10:55:47;;;;;;;19.90;11.80;;;;;;;4.87;100.00;99666.53;4995896;28;20034;-70
2022/12/08 10:58:25;;;;;;;19.23;10.88;;;;;;;4.51;100.00;99610.09;4994381;28;20062;-70
2022/12/08 11:00:56;;;;;;;16.40;10.77;;;;;;;4.80;100.00;99670.25;4995188;28;20074;-72
2022/12/08 11:03:32;;;;;;;18.77;10.90;;;;;;;4.84;100.00;99666.63;4985004;28;20239;-71
2022/12/08 11:06:01;;;;;;;20.67;11.80;;;;;;;4.89;100.00;99679.56;4999936;28;20510;-71
2022/12/08 11:08:45;;;;;;;18.80;11.02;;;;;;;5.01;100.00;99668.66;4998541;28;20080;-70
2022/12/08 11:11:12;;;;;;;18.17;10.57;;;;;;;5.05;100.00;99666.75;4995288;28;20042;-71
2022/12/08 11:13:40;;;;;;;18.13;10.98;;;;;;;5.09;100.00;99663.97;4993905;28;20525;-70
2022/12/08 11:16:10;;;;;;;18.17;11.00;;;;;;;5.20;100.00;99660.94;5007466;28;20132;-71
2022/12/08 11:18:55;;;;;;;17.77;10.30;;;;;;;5.17;100.00;99638.31;4996655;28;20046;-69
2022/12/08 11:21:33;;;;;;;18.90;11.20;;;;;;;5.15;100.00;99660.28;4996464;28;20129;-70
2022/12/08 11:24:17;;;;;;;20.63;11.13;;;;;;;4.98;100.00;99634.66;4996275;28;20048;-70
2022/12/08 11:27:05;;;;;;;17.73;11.18;;;;;;;5.24;100.00;99658.16;5002456;28;21091;-70
2022/12/08 11:29:34;;;;;;;17.70;10.98;;;;;;;5.14;100.00;99622.69;5005250;28;20088;-71
2022/12/08 11:32:12;;;;;;;18.33;11.60;;;;;;;5.31;100.00;99644.81;5002140;28;20038;-71
2022/12/08 11:34:52;;;;;;;17.15;10.80;;;;;;;5.37;100.00;99647.19;4991634;28;20089;-70
2022/12/08 11:37:27;;;;;;;17.92;10.50;;;;;;;5.37;100.00;99647.19;5004057;28;20398;-72
2022/12/08 11:40:05;;;;;;;16.80;9.90;;;;;;;5.35;100.00;99647.28;5004946;28;20096;-70